Time;durP1;ratioP1;P1;durP2;ratioP2;P2;SDS_P1;SDS_P2;PMS_P1;PMS_P2;Temp;Humidity;BMP_temperature;BMP_pressure;BME280_temperature;BME280_humidity;BME280_pressure;Samples;Min_cycle;Max_cycle;Signal;HPM_P1;HPM_P2
2021/05/12 00:01:50;;;;;;;25.37;14.17;;;11.60;99.90;;;;;;5076405;28;20203;-81
2021/05/12 00:04:16;;;;;;;23.80;14.53;;;11.50;99.90;;;;;;5072904;28;20583;-78
2021/05/12 00:06:43;;;;;;;27.27;14.53;;;11.50;99.90;;;;;;5080974;28;20600;-78
2021/05/12 00:09:10;;;;;;;30.47;14.90;;;11.40;99.90;;;;;;5082443;28;20247;-77
2021/05/12 00:11:36;;;;;;;22.70;13.70;;;11.30;99.90;;;;;;5081129;28;20217;-78
2021/05/12 00:14:03;;;;;;;23.17;14.30;;;11.30;99.90;;;;;;5083067;28;20193;-78
2021/05/12 00:16:30;;;;;;;22.37;14.07;;;11.20;99.90;;;;;;5082625;28;20197;-78
2021/05/12 00:18:56;;;;;;;26.10;14.43;;;11.20;99.90;;;;;;5081467;28;20205;-78
2021/05/12 00:21:28;;;;;;;22.27;13.03;;;11.10;99.90;;;;;;5084580;28;20284;-77
2021/05/12 00:23:59;;;;;;;22.37;12.53;;;11.00;99.90;;;;;;5087114;28;20194;-78
2021/05/12 00:26:32;;;;;;;21.27;12.50;;;10.90;99.90;;;;;;5083646;28;20194;-78
2021/05/12 00:28:58;;;;;;;23.00;12.47;;;10.90;99.90;;;;;;5084921;28;20313;-79
2021/05/12 00:31:25;;;;;;;21.43;12.93;;;10.90;99.90;;;;;;5086048;28;20217;-79
2021/05/12 00:33:51;;;;;;;21.70;12.57;;;10.90;99.90;;;;;;5086621;28;20194;-78
2021/05/12 00:36:17;;;;;;;19.90;12.93;;;10.90;99.90;;;;;;5084942;28;20232;-80
2021/05/12 00:38:44;;;;;;;20.53;12.70;;;11.00;99.90;;;;;;5086251;28;20288;-81
2021/05/12 00:41:10;;;;;;;22.67;13.13;;;10.90;99.90;;;;;;5084089;28;20193;-77
2021/05/12 00:43:37;;;;;;;20.63;12.57;;;10.90;99.90;;;;;;5086650;28;20189;-77
2021/05/12 00:46:04;;;;;;;23.30;13.13;;;10.90;99.90;;;;;;5086727;28;20539;-77
2021/05/12 00:48:30;;;;;;;28.57;13.27;;;10.80;99.90;;;;;;5086399;28;20281;-78
2021/05/12 00:50:56;;;;;;;25.27;13.17;;;10.90;99.90;;;;;;5084451;28;20217;-77
2021/05/12 00:53:23;;;;;;;26.13;13.17;;;10.80;99.90;;;;;;5086294;28;20193;-78
2021/05/12 00:55:49;;;;;;;27.80;12.53;;;10.80;99.90;;;;;;5085679;28;20233;-78
2021/05/12 00:58:16;;;;;;;32.67;13.27;;;10.80;99.90;;;;;;5084245;28;20205;-79
2021/05/12 01:00:44;;;;;;;28.80;13.73;;;10.70;99.90;;;;;;5086270;28;20298;-78
2021/05/12 01:03:10;;;;;;;29.33;13.37;;;10.70;99.90;;;;;;5085754;28;20291;-78
2021/05/12 01:06:00;;;;;;;26.97;13.20;;;10.70;99.90;;;;;;5084128;28;20289;-79
2021/05/12 01:08:27;;;;;;;34.47;14.27;;;10.60;99.90;;;;;;5083173;28;20252;-78
2021/05/12 01:10:54;;;;;;;26.63;13.97;;;10.70;99.90;;;;;;5084270;28;20217;-81
2021/05/12 01:13:21;;;;;;;28.73;13.83;;;10.70;99.90;;;;;;5081517;28;20705;-80
2021/05/12 01:15:48;;;;;;;26.37;12.33;;;10.80;99.90;;;;;;5085046;28;20803;-78
2021/05/12 01:18:16;;;;;;;25.20;12.20;;;10.80;99.90;;;;;;5085828;28;20660;-79
2021/05/12 01:20:52;;;;;;;28.27;12.33;;;10.80;99.90;;;;;;5081689;28;20198;-80
2021/05/12 01:23:20;;;;;;;28.17;13.07;;;10.70;99.90;;;;;;5083764;28;20267;-77
2021/05/12 01:25:47;;;;;;;25.70;11.30;;;10.60;99.90;;;;;;5083933;28;20243;-78
2021/05/12 01:28:14;;;;;;;23.50;11.20;;;10.60;99.90;;;;;;5084198;28;20224;-79
2021/05/12 01:30:40;;;;;;;29.43;12.57;;;10.60;99.90;;;;;;5085745;28;20218;-78
2021/05/12 01:33:07;;;;;;;22.10;10.93;;;10.60;99.90;;;;;;5082573;28;20189;-82
2021/05/12 01:35:34;;;;;;;28.80;11.80;;;10.60;99.90;;;;;;5085938;28;20189;-79
2021/05/12 01:38:01;;;;;;;26.73;11.07;;;10.70;99.90;;;;;;5085592;28;20656;-78
2021/05/12 01:40:28;;;;;;;21.40;10.93;;;10.60;99.90;;;;;;5084845;28;20192;-81
2021/05/12 01:42:54;;;;;;;20.83;10.93;;;10.60;99.90;;;;;;5083626;28;20703;-78
2021/05/12 01:45:20;;;;;;;23.80;11.07;;;10.50;99.90;;;;;;5085629;28;20192;-80
2021/05/12 01:47:47;;;;;;;21.53;10.60;;;10.50;99.90;;;;;;5084414;28;20196;-79
2021/05/12 01:50:14;;;;;;;23.47;9.70;;;10.50;99.90;;;;;;5083955;28;20221;-78
2021/05/12 01:52:45;;;;;;;26.97;10.77;;;10.40;99.90;;;;;;5076723;28;20324;-78
2021/05/12 01:55:15;;;;;;;21.77;10.63;;;10.40;99.90;;;;;;5074010;28;20211;-79
2021/05/12 01:57:42;;;;;;;23.83;10.27;;;10.50;99.90;;;;;;5074302;28;20210;-78
2021/05/12 02:00:23;;;;;;;24.97;10.80;;;10.40;99.90;;;;;;5074039;28;20201;-78
2021/05/12 02:02:50;;;;;;;18.37;9.97;;;10.40;99.90;;;;;;5073802;28;20223;-77
2021/05/12 02:05:17;;;;;;;22.37;10.17;;;10.40;99.90;;;;;;5074078;28;20724;-78
2021/05/12 02:07:44;;;;;;;23.23;10.73;;;10.40;99.90;;;;;;5074826;28;20204;-78
2021/05/12 02:10:11;;;;;;;25.23;11.50;;;10.40;99.90;;;;;;5074380;28;20198;-77
2021/05/12 02:12:38;;;;;;;23.13;10.33;;;10.30;99.90;;;;;;5074344;28;20221;-78
2021/05/12 02:15:06;;;;;;;19.67;10.40;;;10.20;99.90;;;;;;5074304;28;20243;-77
2021/05/12 02:17:32;;;;;;;21.70;10.83;;;10.20;99.90;;;;;;5074137;28;20202;-78
2021/05/12 02:19:59;;;;;;;20.67;10.73;;;10.20;99.90;;;;;;5076103;28;20265;-76
2021/05/12 02:22:25;;;;;;;22.50;11.30;;;10.10;99.90;;;;;;5076043;28;20659;-82
2021/05/12 02:24:51;;;;;;;21.10;10.70;;;10.10;99.90;;;;;;5074323;28;20234;-76
2021/05/12 02:27:18;;;;;;;22.13;11.03;;;10.10;99.90;;;;;;5074060;28;20193;-77
2021/05/12 02:29:45;;;;;;;23.60;11.03;;;10.10;99.90;;;;;;5074195;28;20204;-79
2021/05/12 02:32:11;;;;;;;23.83;10.17;;;10.10;99.90;;;;;;5073782;28;20645;-79
2021/05/12 02:34:37;;;;;;;20.27;11.00;;;10.00;99.90;;;;;;5074109;28;20200;-83
2021/05/12 02:37:04;;;;;;;21.07;10.43;;;10.00;99.90;;;;;;5074195;28;20239;-77
2021/05/12 02:39:30;;;;;;;19.17;10.40;;;10.00;99.90;;;;;;5073649;28;20226;-77
2021/05/12 02:41:57;;;;;;;27.53;12.07;;;10.10;99.90;;;;;;5073856;28;20198;-80
2021/05/12 02:44:24;;;;;;;22.83;10.57;;;10.10;99.90;;;;;;5073159;28;20701;-77
2021/05/12 02:46:51;;;;;;;23.03;11.43;;;10.00;99.90;;;;;;5073603;28;20294;-79
2021/05/12 02:49:17;;;;;;;21.53;10.20;;;10.00;99.90;;;;;;5073840;28;20191;-79
2021/05/12 02:51:43;;;;;;;25.00;10.27;;;9.90;99.90;;;;;;5073419;28;20318;-77
2021/05/12 02:54:10;;;;;;;23.03;10.60;;;9.90;99.90;;;;;;5073382;28;20220;-80
2021/05/12 02:56:36;;;;;;;19.83;10.27;;;9.80;99.90;;;;;;5073651;28;20193;-77
2021/05/12 02:59:03;;;;;;;23.97;10.53;;;9.80;99.90;;;;;;5073487;28;20651;-77
2021/05/12 03:01:30;;;;;;;20.67;10.73;;;9.90;99.90;;;;;;5073515;28;20267;-77
2021/05/12 03:03:57;;;;;;;19.10;9.67;;;9.90;99.90;;;;;;5073742;28;20196;-77
2021/05/12 03:06:23;;;;;;;18.87;10.23;;;9.80;99.90;;;;;;5073601;28;20222;-75
2021/05/12 03:08:49;;;;;;;20.20;9.90;;;9.80;99.90;;;;;;5073320;28;20673;-77
2021/05/12 03:11:16;;;;;;;19.70;10.73;;;9.80;99.90;;;;;;5073203;28;20220;-78
2021/05/12 03:13:42;;;;;;;26.17;10.57;;;9.80;99.90;;;;;;5073296;28;20619;-77
2021/05/12 03:16:08;;;;;;;27.17;11.17;;;9.70;99.90;;;;;;5073708;28;20192;-78
2021/05/12 03:18:36;;;;;;;24.67;11.30;;;9.70;99.90;;;;;;5073268;28;20201;-82
2021/05/12 03:21:02;;;;;;;19.07;11.00;;;9.80;99.90;;;;;;5073526;28;20330;-81
2021/05/12 03:23:28;;;;;;;21.03;11.43;;;9.80;99.90;;;;;;5073361;28;20189;-77
2021/05/12 03:25:55;;;;;;;21.27;11.43;;;9.80;99.90;;;;;;5073280;28;20198;-79
2021/05/12 03:28:21;;;;;;;26.87;11.20;;;9.80;99.90;;;;;;5073098;28;20195;-77
2021/05/12 03:30:48;;;;;;;22.53;11.20;;;9.80;99.90;;;;;;5073655;28;20247;-77
2021/05/12 03:33:15;;;;;;;18.63;10.40;;;9.60;99.90;;;;;;5073211;28;20194;-77
2021/05/12 03:35:42;;;;;;;18.93;10.47;;;9.60;99.90;;;;;;5073226;28;20199;-80
2021/05/12 03:38:11;;;;;;;25.63;11.17;;;9.60;99.90;;;;;;5073305;28;20226;-77
2021/05/12 03:40:38;;;;;;;20.13;10.07;;;9.60;99.90;;;;;;5073193;28;20630;-77
2021/05/12 03:43:05;;;;;;;22.53;10.03;;;9.60;99.90;;;;;;5072983;28;20197;-79
2021/05/12 03:45:32;;;;;;;18.83;9.40;;;9.60;99.90;;;;;;5073251;28;20193;-81
2021/05/12 03:47:59;;;;;;;17.27;9.47;;;9.60;99.90;;;;;;5073009;28;20255;-77
2021/05/12 03:50:28;;;;;;;20.43;10.40;;;9.60;99.90;;;;;;5072906;28;20191;-81
2021/05/12 03:52:56;;;;;;;17.13;9.67;;;9.60;99.90;;;;;;5073105;28;20197;-78
2021/05/12 03:55:24;;;;;;;17.17;8.53;;;9.70;99.90;;;;;;5072856;28;20233;-77
2021/05/12 03:57:51;;;;;;;23.97;9.03;;;9.60;99.90;;;;;;5079182;28;20288;-78
2021/05/12 04:00:18;;;;;;;17.63;9.00;;;9.60;99.90;;;;;;5078115;28;20276;-77
2021/05/12 04:02:44;;;;;;;17.97;8.47;;;9.60;99.90;;;;;;5077011;28;20202;-77
2021/05/12 04:05:12;;;;;;;20.40;8.40;;;9.60;99.90;;;;;;5076887;28;20286;-80
2021/05/12 04:07:39;;;;;;;16.00;8.70;;;9.60;99.90;;;;;;5076778;28;20195;-79
2021/05/12 04:10:09;;;;;;;19.47;7.40;;;9.60;99.90;;;;;;5076969;28;20194;-80
2021/05/12 04:12:36;;;;;;;19.87;7.90;;;9.60;99.90;;;;;;5076706;28;20622;-77
2021/05/12 04:15:04;;;;;;;14.27;7.10;;;9.60;99.90;;;;;;5076860;28;20294;-78
2021/05/12 04:17:30;;;;;;;13.53;7.80;;;9.60;99.90;;;;;;5076396;28;20201;-79
2021/05/12 04:19:56;;;;;;;13.57;6.90;;;9.60;99.90;;;;;;5076744;28;20202;-80
2021/05/12 04:22:23;;;;;;;16.40;7.20;;;9.60;99.90;;;;;;5076413;28;20295;-78
2021/05/12 04:24:50;;;;;;;12.87;6.80;;;9.70;99.90;;;;;;5076484;28;20190;-79
2021/05/12 04:27:19;;;;;;;19.93;7.30;;;9.90;99.90;;;;;;5077146;28;20552;-77
2021/05/12 04:29:45;;;;;;;13.10;6.70;;;10.30;99.90;;;;;;5076633;28;20282;-77
2021/05/12 04:32:12;;;;;;;14.07;5.93;;;10.70;99.90;;;;;;5072021;28;20313;-77
2021/05/12 04:34:38;;;;;;;15.03;4.90;;;11.20;99.90;;;;;;5075426;28;20195;-76
2021/05/12 04:37:04;;;;;;;14.50;4.73;;;11.80;99.90;;;;;;5074491;28;20657;-77
2021/05/12 04:39:31;;;;;;;6.87;4.20;;;12.40;99.90;;;;;;5073028;28;20198;-80
2021/05/12 04:41:57;;;;;;;16.37;4.13;;;13.10;99.90;;;;;;5075264;28;20196;-80
2021/05/12 04:44:25;;;;;;;12.07;3.40;;;13.70;99.90;;;;;;5075148;28;20198;-78
2021/05/12 04:46:51;;;;;;;7.80;4.03;;;14.40;99.90;;;;;;5075710;28;20302;-79
2021/05/12 04:49:22;;;;;;;11.43;2.83;;;14.90;99.90;;;;;;5075828;28;20196;-80
2021/05/12 04:51:53;;;;;;;10.63;3.00;;;15.40;99.90;;;;;;5080285;28;20218;-80
2021/05/12 04:54:19;;;;;;;9.70;2.73;;;15.90;99.90;;;;;;5076672;28;20677;-79
2021/05/12 04:56:46;;;;;;;8.70;2.53;;;16.20;99.90;;;;;;5074680;28;20641;-80
2021/05/12 04:59:12;;;;;;;7.13;2.50;;;16.30;99.90;;;;;;5075183;28;20195;-82
2021/05/12 05:01:39;;;;;;;9.07;2.97;;;16.20;99.90;;;;;;5075119;28;20199;-78
2021/05/12 05:04:06;;;;;;;8.20;2.33;;;16.00;99.90;;;;;;5075395;28;20213;-81
2021/05/12 05:06:33;;;;;;;5.50;2.47;;;15.80;99.90;;;;;;5076493;28;20204;-78
2021/05/12 05:09:00;;;;;;;9.00;3.23;;;15.50;99.90;;;;;;5074920;28;20200;-79
2021/05/12 05:11:26;;;;;;;5.67;2.43;;;15.10;99.90;;;;;;5075433;28;20246;-80
2021/05/12 05:13:53;;;;;;;6.27;2.60;;;15.00;99.90;;;;;;5075171;28;20195;-78
2021/05/12 05:16:19;;;;;;;8.57;2.53;;;15.30;99.90;;;;;;5075044;28;20546;-78
2021/05/12 05:18:48;;;;;;;7.20;2.63;;;16.00;99.90;;;;;;5075910;28;20191;-78
2021/05/12 05:21:15;;;;;;;8.93;2.50;;;16.30;99.90;;;;;;5075231;28;20721;-80
2021/05/12 05:23:41;;;;;;;7.70;2.77;;;16.20;99.90;;;;;;5073973;28;20200;-79
2021/05/12 05:26:08;;;;;;;8.40;3.00;;;16.00;99.90;;;;;;5075569;28;20222;-78
2021/05/12 05:28:34;;;;;;;5.93;2.57;;;15.90;99.90;;;;;;5074967;28;20215;-79
2021/05/12 05:31:01;;;;;;;8.03;2.77;;;15.70;99.90;;;;;;5074774;28;20211;-79
2021/05/12 05:33:35;;;;;;;6.70;2.77;;;15.20;99.90;;;;;;5074700;28;20199;-78
2021/05/12 05:36:11;;;;;;;10.10;2.70;;;14.80;99.90;;;;;;5074936;28;20664;-81
2021/05/12 05:38:39;;;;;;;12.97;2.80;;;14.80;99.90;;;;;;5074716;28;20198;-82
2021/05/12 05:41:16;;;;;;;9.27;2.43;;;15.60;99.90;;;;;;5074521;28;20218;-78
2021/05/12 05:43:52;;;;;;;8.63;2.40;;;17.10;99.90;;;;;;5074782;28;20226;-82
2021/05/12 05:46:30;;;;;;;11.93;2.93;;;18.50;99.90;;;;;;5074277;28;20195;-79
2021/05/12 05:49:08;;;;;;;6.30;2.33;;;20.00;99.90;;;;;;5074085;28;20191;-81
2021/05/12 05:51:47;;;;;;;11.80;2.50;;;21.80;99.90;;;;;;5073805;28;20305;-78
2021/05/12 05:54:20;;;;;;;5.70;2.43;;;23.10;99.90;;;;;;5072327;28;20186;-79
2021/05/12 05:56:49;;;;;;;9.35;2.47;;;23.80;99.90;;;;;;5073320;28;20191;-82
2021/05/12 05:59:20;;;;;;;5.95;2.35;;;24.70;99.90;;;;;;5074034;28;20295;-83
2021/05/12 06:01:58;;;;;;;6.88;2.28;;;25.50;99.90;;;;;;5073788;28;20199;-80
2021/05/12 06:04:25;;;;;;;13.23;2.42;;;26.70;99.90;;;;;;5073616;28;20195;-79
2021/05/12 06:06:55;;;;;;;7.35;2.40;;;27.20;99.90;;;;;;5075587;28;20273;-80
2021/05/12 06:09:22;;;;;;;8.30;2.47;;;27.80;99.90;;;;;;5075423;28;20192;-83
2021/05/12 06:11:49;;;;;;;5.55;2.30;;;28.50;99.90;;;;;;5075353;28;20241;-79
2021/05/12 06:14:16;;;;;;;6.60;2.83;;;28.60;99.90;;;;;;5075049;28;20278;-79
2021/05/12 06:16:42;;;;;;;5.72;2.10;;;28.90;99.90;;;;;;5074859;28;20191;-79
2021/05/12 06:19:09;;;;;;;10.18;2.35;;;28.20;99.90;;;;;;5074628;28;20309;-80
2021/05/12 06:21:35;;;;;;;5.60;2.38;;;27.10;99.90;;;;;;5075399;28;20624;-79
2021/05/12 06:24:03;;;;;;;7.82;2.40;;;25.50;99.90;;;;;;5075017;28;20211;-78
2021/05/12 06:26:29;;;;;;;4.93;2.00;;;25.60;99.90;;;;;;5074751;28;20283;-79
2021/05/12 06:28:56;;;;;;;4.45;2.00;;;26.40;99.90;;;;;;5075057;28;20271;-80
2021/05/12 06:31:22;;;;;;;8.48;2.38;;;27.50;99.90;;;;;;5074949;28;20223;-79
2021/05/12 06:33:49;;;;;;;6.05;2.28;;;27.60;99.90;;;;;;5074539;28;20191;-81
2021/05/12 06:36:16;;;;;;;6.63;2.28;;;27.90;99.90;;;;;;5074939;28;20188;-77
2021/05/12 06:38:42;;;;;;;6.18;2.10;;;28.00;99.90;;;;;;5074570;28;20221;-76
2021/05/12 06:41:10;;;;;;;8.50;2.60;;;27.70;99.90;;;;;;5074801;28;20206;-79
2021/05/12 06:43:36;;;;;;;4.63;1.92;;;27.80;99.90;;;;;;5074360;28;20207;-78
2021/05/12 06:46:03;;;;;;;8.02;2.40;;;27.60;99.90;;;;;;5074521;28;20659;-77
2021/05/12 06:48:29;;;;;;;7.82;2.33;;;27.10;99.90;;;;;;5074530;28;20202;-78
2021/05/12 06:50:56;;;;;;;6.82;2.10;;;26.50;99.90;;;;;;5074766;28;20198;-77
2021/05/12 06:53:27;;;;;;;9.32;2.28;;;26.10;99.90;;;;;;5074354;28;20294;-77
2021/05/12 06:55:53;;;;;;;4.32;2.00;;;25.40;99.90;;;;;;5073844;28;20195;-76
2021/05/12 06:58:21;;;;;;;10.10;2.10;;;24.70;99.90;;;;;;5074116;28;20218;-77
2021/05/12 07:00:49;;;;;;;8.90;2.25;;;24.00;99.90;;;;;;5074247;28;20192;-77
2021/05/12 07:03:15;;;;;;;9.88;2.40;;;23.30;99.90;;;;;;5074502;28;20203;-79
2021/05/12 07:05:41;;;;;;;4.40;1.85;;;22.50;99.90;;;;;;5073533;28;20664;-73
2021/05/12 07:08:07;;;;;;;7.45;1.90;;;21.80;99.90;;;;;;5072305;28;20198;-79
2021/05/12 07:10:34;;;;;;;7.75;2.10;;;21.30;99.90;;;;;;5073715;28;20233;-77
2021/05/12 07:13:00;;;;;;;11.77;2.33;;;21.10;99.90;;;;;;5074701;28;20269;-76
2021/05/12 07:15:27;;;;;;;8.75;1.88;;;21.10;99.90;;;;;;5073609;28;20199;-77
2021/05/12 07:17:54;;;;;;;9.10;2.10;;;21.00;99.90;;;;;;5073771;28;20282;-78
2021/05/12 07:20:20;;;;;;;9.60;2.20;;;20.50;99.90;;;;;;5073329;28;20188;-77
2021/05/12 07:22:47;;;;;;;9.17;2.50;;;19.90;99.90;;;;;;5074004;28;20294;-77
2021/05/12 07:25:14;;;;;;;12.60;2.37;;;19.40;99.90;;;;;;5073650;28;20529;-79
2021/05/12 07:27:41;;;;;;;9.13;2.10;;;19.10;99.90;;;;;;5073540;28;20199;-80
2021/05/12 07:30:08;;;;;;;13.10;1.97;;;18.40;99.90;;;;;;5073144;28;20195;-76
2021/05/12 07:32:36;;;;;;;6.53;1.83;;;18.20;99.90;;;;;;5072958;28;20264;-77
2021/05/12 07:35:03;;;;;;;12.10;2.33;;;18.30;99.90;;;;;;5073522;28;20661;-77
2021/05/12 07:37:29;;;;;;;6.73;1.90;;;17.90;99.90;;;;;;5073382;28;20195;-77
2021/05/12 07:39:56;;;;;;;5.07;1.77;;;17.70;99.90;;;;;;5074063;28;20267;-79
2021/05/12 07:42:25;;;;;;;8.33;2.37;;;17.80;99.90;;;;;;5073692;28;20191;-78
2021/05/12 07:44:51;;;;;;;11.47;2.80;;;18.10;99.90;;;;;;5073596;28;20642;-78
2021/05/12 07:47:17;;;;;;;11.63;2.60;;;19.20;99.90;;;;;;5073837;28;20196;-80
2021/05/12 07:49:45;;;;;;;6.70;2.27;;;20.60;99.90;;;;;;5073076;28;20627;-77
2021/05/12 07:52:14;;;;;;;14.13;2.67;;;22.30;99.90;;;;;;5073147;28;20217;-78
2021/05/12 07:54:42;;;;;;;13.48;2.40;;;24.10;99.90;;;;;;5073879;28;20202;-77
2021/05/12 07:57:09;;;;;;;10.07;2.63;;;24.60;99.90;;;;;;5073010;28;20192;-77
2021/05/12 07:59:35;;;;;;;10.32;2.63;;;23.70;99.90;;;;;;5073385;28;20194;-77
2021/05/12 08:02:02;;;;;;;9.18;2.55;;;22.70;99.90;;;;;;5073638;28;20373;-80
2021/05/12 08:04:29;;;;;;;8.00;2.73;;;21.60;99.90;;;;;;5073104;28;20192;-79
2021/05/12 08:06:56;;;;;;;10.07;2.70;;;20.90;99.90;;;;;;5072815;28;20203;-77
2021/05/12 08:09:23;;;;;;;5.70;2.30;;;21.40;99.90;;;;;;5073574;28;20202;-77
2021/05/12 08:11:50;;;;;;;9.67;2.60;;;21.70;99.90;;;;;;5072693;28;20227;-76
2021/05/12 08:14:16;;;;;;;14.75;2.72;;;22.30;99.90;;;;;;5073226;28;20222;-76
2021/05/12 08:16:44;;;;;;;7.45;2.53;;;22.90;99.90;;;;;;5071503;28;20196;-77
2021/05/12 08:19:11;;;;;;;7.63;2.10;;;24.80;99.90;;;;;;5072909;28;20192;-77
2021/05/12 08:21:37;;;;;;;10.77;2.45;;;25.70;99.90;;;;;;5073168;28;20194;-77
2021/05/12 08:24:05;;;;;;;11.27;2.50;;;25.50;99.90;;;;;;5072434;28;20294;-79
2021/05/12 08:26:32;;;;;;;8.00;2.28;;;24.90;99.90;;;;;;5072550;28;20645;-77
2021/05/12 08:28:59;;;;;;;8.35;2.15;;;24.00;99.90;;;;;;5072924;28;20194;-78
2021/05/12 08:31:26;;;;;;;9.98;2.60;;;22.80;99.90;;;;;;5072888;28;20208;-80
2021/05/12 08:33:52;;;;;;;9.48;2.60;;;22.00;99.90;;;;;;5077493;28;20197;-77
2021/05/12 08:36:19;;;;;;;12.60;2.25;;;21.30;99.90;;;;;;5080826;28;20194;-79
2021/05/12 08:38:46;;;;;;;9.25;2.20;;;20.50;99.90;;;;;;5083633;28;20203;-78
2021/05/12 08:41:14;;;;;;;10.57;2.43;;;19.90;99.90;;;;;;5080632;28;20648;-79
2021/05/12 08:43:42;;;;;;;14.33;3.10;;;19.50;99.90;;;;;;5083028;28;20705;-77
2021/05/12 08:46:09;;;;;;;10.70;2.47;;;19.10;99.90;;;;;;5086239;28;20218;-79
2021/05/12 08:48:37;;;;;;;10.27;2.60;;;19.00;99.90;;;;;;5086668;28;20195;-77
2021/05/12 08:51:06;;;;;;;11.97;2.40;;;19.50;99.90;;;;;;5085024;28;20661;-78
2021/05/12 08:53:33;;;;;;;7.73;2.53;;;20.60;99.90;;;;;;5087640;28;20216;-78
2021/05/12 08:56:00;;;;;;;11.53;2.50;;;21.50;99.90;;;;;;5084909;28;20215;-80
2021/05/12 08:58:28;;;;;;;10.20;2.97;;;22.00;99.90;;;;;;5086483;28;20201;-78
2021/05/12 09:00:55;;;;;;;13.63;2.45;;;23.00;99.90;;;;;;5085657;28;20210;-78
2021/05/12 09:03:22;;;;;;;11.27;2.80;;;23.90;99.90;;;;;;5084252;28;20191;-78
2021/05/12 09:05:49;;;;;;;7.43;2.42;;;25.80;99.90;;;;;;5085978;28;20206;-79
2021/05/12 09:08:15;;;;;;;8.27;2.65;;;28.50;99.90;;;;;;5085801;28;20188;-78
2021/05/12 09:10:42;;;;;;;8.10;2.30;;;29.60;99.90;;;;;;5084180;28;20187;-78
2021/05/12 09:13:09;;;;;;;8.85;2.30;;;30.90;99.90;;;;;;5084817;28;20684;-78
2021/05/12 09:15:36;;;;;;;7.22;2.33;;;30.30;99.90;;;;;;5085672;28;20196;-79
2021/05/12 09:18:05;;;;;;;8.07;2.50;;;29.70;99.90;;;;;;5084643;28;20282;-78
2021/05/12 09:20:34;;;;;;;11.05;2.47;;;28.10;99.90;;;;;;5085220;28;20273;-80
2021/05/12 09:23:09;;;;;;;7.78;2.20;;;26.60;99.90;;;;;;5086158;28;20210;-79
2021/05/12 09:25:37;;;;;;;23.08;3.72;;;25.80;99.90;;;;;;5085441;28;20282;-78
2021/05/12 09:28:12;;;;;;;10.48;2.28;;;25.40;99.90;;;;;;5084325;28;20295;-81
2021/05/12 09:30:40;;;;;;;8.50;2.22;;;25.80;99.90;;;;;;5084259;28;20186;-78
2021/05/12 09:33:07;;;;;;;8.13;2.38;;;27.70;99.90;;;;;;5081232;28;20218;-78
2021/05/12 09:35:41;;;;;;;8.10;2.47;;;29.70;99.90;;;;;;5084731;28;20294;-78
2021/05/12 09:38:18;;;;;;;6.38;2.00;;;29.70;99.90;;;;;;5080837;28;20286;-77
2021/05/12 09:40:45;;;;;;;6.13;2.10;;;29.40;99.90;;;;;;5081121;28;20517;-78
2021/05/12 09:43:13;;;;;;;6.72;2.30;;;29.70;99.00;;;;;;5086985;28;20192;-78
2021/05/12 09:45:40;;;;;;;9.07;2.40;;;30.50;98.70;;;;;;5095637;28;20195;-79
2021/05/12 09:48:07;;;;;;;7.50;1.80;;;30.60;97.70;;;;;;5095234;28;20289;-78
2021/05/12 09:50:36;;;;;;;7.80;2.28;;;32.10;95.70;;;;;;5095385;28;20205;-80
2021/05/12 09:53:04;;;;;;;7.88;2.13;;;32.90;94.00;;;;;;5095393;28;20561;-79
2021/05/12 09:55:35;;;;;;;5.85;2.05;;;32.00;94.80;;;;;;5094982;28;20202;-77
2021/05/12 09:58:02;;;;;;;5.25;1.65;;;31.70;95.00;;;;;;5095745;28;20278;-79
2021/05/12 10:00:30;;;;;;;7.30;2.10;;;31.60;93.90;;;;;;5094758;28;20723;-77
2021/05/12 10:02:58;;;;;;;8.73;2.13;;;32.30;92.70;;;;;;5094431;28;20627;-78
2021/05/12 10:05:25;;;;;;;4.55;1.92;;;31.20;93.50;;;;;;5095705;28;20592;-78
2021/05/12 10:07:52;;;;;;;5.88;2.10;;;28.80;94.10;;;;;;5094827;28;20282;-77
2021/05/12 10:10:38;;;;;;;9.52;2.17;;;26.80;95.80;;;;;;5070531;28;20268;-78
2021/05/12 10:13:05;;;;;;;7.90;2.33;;;25.50;97.30;;;;;;5063877;28;20929;-80
2021/05/12 10:15:32;;;;;;;10.32;2.33;;;24.30;98.80;;;;;;5070497;28;20279;-82
2021/05/12 10:18:01;;;;;;;6.47;2.00;;;23.80;99.20;;;;;;5074709;28;20212;-80
2021/05/12 10:20:27;;;;;;;8.57;2.10;;;23.60;99.90;;;;;;5077227;28;20207;-80
2021/05/12 10:22:56;;;;;;;6.57;1.83;;;23.20;99.90;;;;;;5081833;28;20294;-77
2021/05/12 10:25:23;;;;;;;8.15;2.22;;;23.10;99.90;;;;;;5077149;28;20196;-75
2021/05/12 10:27:50;;;;;;;5.03;2.20;;;22.60;99.90;;;;;;5083969;28;20222;-78
2021/05/12 10:30:17;;;;;;;6.72;2.30;;;23.30;99.90;;;;;;5084871;28;20191;-79
2021/05/12 10:32:50;;;;;;;7.78;2.47;;;24.10;99.90;;;;;;5084630;28;20246;-78
2021/05/12 10:35:17;;;;;;;7.30;2.50;;;24.80;99.30;;;;;;5074427;28;20573;-79
2021/05/12 10:37:46;;;;;;;7.43;2.47;;;24.00;99.90;;;;;;5082826;28;20234;-80
2021/05/12 10:40:22;;;;;;;6.68;2.25;;;23.20;99.90;;;;;;5077713;28;20207;-77
2021/05/12 10:42:57;;;;;;;5.18;2.13;;;22.90;99.90;;;;;;5080934;28;20274;-78
2021/05/12 10:45:56;;;;;;;6.22;2.20;;;22.60;99.90;;;;;;5078321;28;20554;-78
2021/05/12 10:48:47;;;;;;;5.88;1.77;;;23.10;99.90;;;;;;5080192;28;20191;-78
2021/05/12 10:51:31;;;;;;;5.15;2.10;;;25.70;99.90;;;;;;5076254;28;20186;-79
2021/05/12 10:54:01;;;;;;;5.40;2.40;;;28.20;98.10;;;;;;5079135;28;20302;-81
2021/05/12 10:56:35;;;;;;;8.20;2.80;;;28.90;95.80;;;;;;5081490;28;20191;-78
2021/05/12 10:59:04;;;;;;;6.07;2.15;;;27.50;95.80;;;;;;5080826;28;20740;-80
2021/05/12 11:01:34;;;;;;;5.00;1.75;;;25.90;97.90;;;;;;5081077;28;20252;-79
2021/05/12 11:04:11;;;;;;;7.93;2.00;;;24.20;98.60;;;;;;5082259;28;20551;-78
2021/05/12 11:07:12;;;;;;;7.82;1.85;;;22.90;99.90;;;;;;5078297;28;20285;-80
2021/05/12 11:09:41;;;;;;;9.43;2.03;;;21.20;99.90;;;;;;5076440;28;20198;-82
2021/05/12 11:12:09;;;;;;;7.60;1.97;;;19.30;99.90;;;;;;5080404;28;20215;-84
2021/05/12 11:14:37;;;;;;;5.17;1.70;;;17.90;99.90;;;;;;5073488;28;20198;-83
2021/05/12 11:17:05;;;;;;;9.43;1.83;;;16.70;99.90;;;;;;5072528;28;20229;-81
2021/05/12 11:19:48;;;;;;;6.80;1.37;;;16.20;99.90;;;;;;5073369;28;20227;-82
2021/05/12 11:22:38;;;;;;;6.37;1.47;;;15.70;99.90;;;;;;5079596;28;20219;-83
2021/05/12 11:25:10;;;;;;;3.63;1.50;;;15.60;99.90;;;;;;5079041;28;20198;-80
2021/05/12 11:28:06;;;;;;;3.13;0.70;;;15.40;99.90;;;;;;5084136;28;20190;-79
2021/05/12 11:33:21;;;;;;;2.27;0.63;;;15.40;99.90;;;;;;5078862;28;20206;-80
2021/05/12 11:35:49;;;;;;;3.37;0.83;;;15.60;99.90;;;;;;5074477;28;20241;-80
2021/05/12 11:38:17;;;;;;;5.27;0.93;;;15.90;99.90;;;;;;5076952;28;20199;-80
2021/05/12 11:40:58;;;;;;;3.30;1.00;;;16.30;99.90;;;;;;5058097;28;20557;-79
2021/05/12 11:43:35;;;;;;;2.67;0.87;;;16.40;99.90;;;;;;5053465;28;20275;-80
2021/05/12 11:46:13;;;;;;;2.40;1.17;;;16.60;99.90;;;;;;5059599;28;20630;-79
2021/05/12 11:48:42;;;;;;;4.50;1.20;;;16.90;99.90;;;;;;5072934;28;20241;-79
2021/05/12 11:51:09;;;;;;;2.63;0.90;;;17.40;99.90;;;;;;5073038;28;20192;-80
2021/05/12 11:53:38;;;;;;;3.87;1.00;;;17.80;99.90;;;;;;5072783;28;20234;-80
2021/05/12 11:56:05;;;;;;;4.23;1.43;;;18.80;99.90;;;;;;5060517;28;20288;-78
2021/05/12 11:58:32;;;;;;;2.50;0.90;;;20.80;99.90;;;;;;5073234;28;20274;-80
2021/05/12 12:01:06;;;;;;;4.27;1.00;;;22.80;99.90;;;;;;5070464;28;20592;-81
2021/05/12 12:03:34;;;;;;;4.47;1.30;;;23.70;99.90;;;;;;5072777;28;20201;-80
2021/05/12 12:06:05;;;;;;;2.78;1.50;;;24.20;99.90;;;;;;5080917;28;20644;-81
2021/05/12 12:08:32;;;;;;;3.75;1.40;;;24.50;99.90;;;;;;5078285;28;20195;-79
2021/05/12 12:11:07;;;;;;;3.83;1.60;;;24.50;99.90;;;;;;5067979;28;20546;-80
2021/05/12 12:13:34;;;;;;;5.50;1.50;;;23.70;99.90;;;;;;5072974;28;20326;-81
2021/05/12 12:16:01;;;;;;;5.45;1.67;;;23.30;99.90;;;;;;5074623;28;20231;-81
2021/05/12 12:18:29;;;;;;;3.00;1.40;;;23.80;99.90;;;;;;5079488;28;20236;-79
2021/05/12 12:20:55;;;;;;;4.78;1.75;;;24.00;99.90;;;;;;5075067;28;20553;-79
2021/05/12 12:23:31;;;;;;;7.90;1.63;;;23.80;99.90;;;;;;5073032;28;20231;-80
2021/05/12 12:26:15;;;;;;;4.45;1.45;;;23.50;99.90;;;;;;5070370;28;20195;-80
2021/05/12 12:28:43;;;;;;;7.88;1.58;;;22.60;99.90;;;;;;5071883;28;20200;-79
2021/05/12 12:31:13;;;;;;;3.63;1.50;;;21.50;99.90;;;;;;5078749;28;20203;-80
2021/05/12 12:33:40;;;;;;;3.80;1.50;;;20.90;99.90;;;;;;5069015;28;20886;-79
2021/05/12 12:36:08;;;;;;;5.70;1.70;;;20.60;99.90;;;;;;5073034;28;20711;-78
2021/05/12 12:38:37;;;;;;;6.80;2.00;;;20.30;99.90;;;;;;5071854;28;20203;-78
2021/05/12 12:41:03;;;;;;;6.73;1.67;;;20.20;99.90;;;;;;5075858;28;20236;-77
2021/05/12 12:43:40;;;;;;;5.67;1.70;;;20.00;99.90;;;;;;5078074;28;20610;-79
2021/05/12 12:46:07;;;;;;;6.50;1.77;;;19.50;99.90;;;;;;5074948;28;20195;-77
2021/05/12 12:48:34;;;;;;;8.37;2.30;;;19.10;99.90;;;;;;5077770;28;20211;-82
2021/05/12 12:51:01;;;;;;;8.50;1.80;;;18.70;99.90;;;;;;5079953;28;20198;-81